Time;durP1;ratioP1;P1;durP2;ratioP2;P2;SDS_P1;SDS_P2;PMS_P1;PMS_P2;Temp;Humidity;BMP_temperature;BMP_pressure;BME280_temperature;BME280_humidity;BME280_pressure;Samples;Min_cycle;Max_cycle;Signal;HPM_P1;HPM_P2
2023/06/03 01:50:52;;;;;;;1999.90;999.90;;;;;;;;;;5426380;23;20302;-72
2023/06/03 01:53:37;;;;;;;1999.90;999.90;;;;;;;;;;4897162;29;20823;-72
2023/06/03 01:56:22;;;;;;;1999.90;999.90;;;;;;;;;;4897882;29;20214;-70
2023/06/03 01:59:07;;;;;;;1999.90;999.90;;;;;;;;;;4897794;29;20209;-72
2023/06/03 02:01:53;;;;;;;1999.90;999.90;;;;;;;;;;4878295;29;20222;-72
2023/06/03 02:04:38;;;;;;;1999.90;999.90;;;;;;;;;;4878721;29;20216;-71
2023/06/03 02:07:25;;;;;;;1999.90;999.90;;;;;;;;;;4871112;29;20235;-71
2023/06/03 02:10:10;;;;;;;1999.90;999.90;;;;;;;;;;4878393;29;20242;-71
2023/06/03 02:12:55;;;;;;;1999.90;999.90;;;;;;;;;;4878634;29;20218;-72
2023/06/03 02:15:41;;;;;;;1999.90;999.90;;;;;;;;;;4878608;29;20240;-72
2023/06/03 02:18:26;;;;;;;1999.90;999.90;;;;;;;;;;4881049;29;20214;-72
2023/06/03 02:21:11;;;;;;;1999.90;999.90;;;;;;;;;;4874813;29;20335;-71
2023/06/03 02:23:58;;;;;;;1999.90;999.90;;;;;;;;;;4879797;29;20219;-71
2023/06/03 02:26:49;;;;;;;1999.90;999.90;;;;;;;;;;4875414;29;20278;-72
2023/06/03 02:29:34;;;;;;;1999.90;999.90;;;;;;;;;;4873787;29;20234;-72
2023/06/03 02:32:19;;;;;;;1999.90;999.90;;;;;;;;;;4878430;29;20220;-72
2023/06/03 02:35:05;;;;;;;1999.90;999.90;;;;;;;;;;4878419;29;20790;-72
2023/06/03 02:37:50;;;;;;;1999.90;999.90;;;;;;;;;;4878961;29;21001;-72
2023/06/03 02:40:37;;;;;;;1999.90;999.90;;;;;;;;;;4886913;29;20366;-72
2023/06/03 02:43:22;;;;;;;1999.90;999.90;;;;;;;;;;4880146;29;20306;-71
2023/06/03 02:46:06;;;;;;;1999.90;999.90;;;;;;;;;;4879486;29;25109;-71
2023/06/03 02:48:51;;;;;;;1999.90;999.90;;;;;;;;;;4880019;29;20227;-72
2023/06/03 02:51:37;;;;;;;1999.90;999.90;;;;;;;;;;4890861;29;20613;-71
2023/06/03 02:54:21;;;;;;;1999.90;999.90;;;;;;;;;;4884737;29;20206;-72
2023/06/03 02:57:08;;;;;;;1999.90;999.90;;;;;;;;;;4891902;29;20291;-72
2023/06/03 02:59:53;;;;;;;1999.90;999.90;;;;;;;;;;4894418;29;20314;-72
2023/06/03 03:02:39;;;;;;;1999.90;999.90;;;;;;;;;;4881584;29;20215;-72
2023/06/03 03:05:24;;;;;;;1999.90;999.90;;;;;;;;;;4865428;29;20269;-71
2023/06/03 03:08:09;;;;;;;1999.90;999.90;;;;;;;;;;4888775;29;20221;-71
2023/06/03 03:10:54;;;;;;;1999.90;999.90;;;;;;;;;;4894539;29;20278;-71
2023/06/03 03:13:41;;;;;;;1999.90;999.90;;;;;;;;;;4889050;29;20315;-71
2023/06/03 03:16:26;;;;;;;1999.90;999.90;;;;;;;;;;4894516;29;20215;-72
2023/06/03 03:19:11;;;;;;;1999.90;999.90;;;;;;;;;;4882091;29;20224;-71
2023/06/03 03:21:56;;;;;;;1999.90;999.90;;;;;;;;;;4890252;29;20698;-71
2023/06/03 03:24:42;;;;;;;1999.90;999.90;;;;;;;;;;4898300;29;20288;-71
2023/06/03 03:27:27;;;;;;;1999.90;999.90;;;;;;;;;;4883767;29;20353;-71
2023/06/03 03:30:13;;;;;;;1999.90;999.90;;;;;;;;;;4886015;29;20294;-71
2023/06/03 03:32:59;;;;;;;1999.90;999.90;;;;;;;;;;4892679;29;20261;-71
2023/06/03 03:35:43;;;;;;;1999.90;999.90;;;;;;;;;;4898276;29;20273;-72
2023/06/03 03:38:29;;;;;;;1999.90;999.90;;;;;;;;;;4889611;29;20205;-73
2023/06/03 03:41:13;;;;;;;1999.90;999.90;;;;;;;;;;4894417;29;20938;-71
2023/06/03 03:43:59;;;;;;;1999.90;999.90;;;;;;;;;;4898291;29;20207;-71
2023/06/03 03:46:48;;;;;;;1999.90;999.90;;;;;;;;;;4885583;29;20210;-71
2023/06/03 03:49:35;;;;;;;1999.90;999.90;;;;;;;;;;4870416;29;20295;-72
2023/06/03 03:52:28;;;;;;;1999.90;999.90;;;;;;;;;;4882022;29;20268;-71
2023/06/03 03:55:12;;;;;;;1999.90;999.90;;;;;;;;;;4889946;29;20592;-72
2023/06/03 03:57:57;;;;;;;1999.90;999.90;;;;;;;;;;4892227;29;20817;-73
2023/06/03 04:00:43;;;;;;;1999.90;999.90;;;;;;;;;;4897528;29;20231;-71
2023/06/03 04:03:29;;;;;;;1999.90;999.90;;;;;;;;;;4887960;29;20214;-71
2023/06/03 04:06:17;;;;;;;1999.90;999.90;;;;;;;;;;4891892;29;20291;-71
2023/06/03 04:09:03;;;;;;;1999.90;999.90;;;;;;;;;;4897337;29;20231;-71
2023/06/03 04:11:48;;;;;;;1999.90;999.90;;;;;;;;;;4888635;29;20582;-71
2023/06/03 04:14:44;;;;;;;1999.90;999.90;;;;;;;;;;4886599;29;20480;-71
2023/06/03 04:17:30;;;;;;;1999.90;999.90;;;;;;;;;;4887990;29;20222;-71
2023/06/03 04:20:28;;;;;;;1999.90;999.90;;;;;;;;;;4899459;29;20585;-71
2023/06/03 04:23:14;;;;;;;1999.90;999.90;;;;;;;;;;4898265;29;20297;-71
2023/06/03 04:25:59;;;;;;;1999.90;999.90;;;;;;;;;;4887548;29;20223;-72
2023/06/03 04:28:44;;;;;;;1999.90;999.90;;;;;;;;;;4897148;29;20729;-72
2023/06/03 04:31:29;;;;;;;1999.90;999.90;;;;;;;;;;4881137;29;20411;-71
2023/06/03 04:34:14;;;;;;;1999.90;999.90;;;;;;;;;;4888583;29;20342;-71
2023/06/03 04:37:00;;;;;;;1999.90;999.90;;;;;;;;;;4891530;29;20295;-71
2023/06/03 04:39:45;;;;;;;1999.90;999.90;;;;;;;;;;4896695;29;20327;-71
2023/06/03 04:42:33;;;;;;;1999.90;999.90;;;;;;;;;;4887337;29;20214;-72
2023/06/03 04:45:18;;;;;;;1999.90;999.90;;;;;;;;;;4899289;29;20299;-71
2023/06/03 04:48:05;;;;;;;1999.90;999.90;;;;;;;;;;4895823;29;20230;-71
2023/06/03 04:50:50;;;;;;;1999.90;999.90;;;;;;;;;;4893276;29;20238;-71
2023/06/03 04:53:37;;;;;;;1999.90;999.90;;;;;;;;;;4883472;29;20210;-71
2023/06/03 04:56:24;;;;;;;1999.90;999.90;;;;;;;;;;4875879;29;20215;-72
2023/06/03 04:59:09;;;;;;;1999.90;999.90;;;;;;;;;;4887696;29;20218;-72
2023/06/03 05:01:54;;;;;;;1999.90;999.90;;;;;;;;;;4879153;29;20723;-72
2023/06/03 05:04:41;;;;;;;1999.90;999.90;;;;;;;;;;4878971;29;20206;-71
2023/06/03 05:07:26;;;;;;;1999.90;999.90;;;;;;;;;;4871693;29;20219;-71
2023/06/03 05:10:13;;;;;;;1999.90;999.90;;;;;;;;;;4879581;29;20239;-69
2023/06/03 05:12:58;;;;;;;1999.90;999.90;;;;;;;;;;4887960;29;20207;-71
2023/06/03 05:15:43;;;;;;;1999.90;999.90;;;;;;;;;;4890814;29;20743;-71
2023/06/03 05:18:28;;;;;;;1999.90;999.90;;;;;;;;;;4879639;29;20288;-71
2023/06/03 05:21:17;;;;;;;1999.90;999.90;;;;;;;;;;4883295;29;20741;-71
2023/06/03 05:24:02;;;;;;;1999.90;999.90;;;;;;;;;;4880145;29;20787;-71
2023/06/03 05:26:48;;;;;;;1999.90;999.90;;;;;;;;;;4876338;29;20212;-71
2023/06/03 05:29:34;;;;;;;1999.90;999.90;;;;;;;;;;4878897;29;20231;-71
2023/06/03 05:32:19;;;;;;;1999.90;999.90;;;;;;;;;;4876265;29;20584;-71
2023/06/03 05:35:05;;;;;;;1999.90;999.90;;;;;;;;;;4878797;29;20214;-72
2023/06/03 05:37:50;;;;;;;1999.90;999.90;;;;;;;;;;4878935;29;20291;-71
2023/06/03 05:40:35;;;;;;;1999.90;999.90;;;;;;;;;;4881122;29;20238;-72
2023/06/03 05:43:23;;;;;;;1999.90;999.90;;;;;;;;;;4884263;29;20264;-72
2023/06/03 05:46:07;;;;;;;1999.90;999.90;;;;;;;;;;4888022;29;20635;-72
2023/06/03 05:48:52;;;;;;;1999.90;999.90;;;;;;;;;;4881706;29;20993;-69
2023/06/03 05:51:37;;;;;;;1999.90;999.90;;;;;;;;;;4874614;29;20247;-70
2023/06/03 05:54:24;;;;;;;1999.90;999.90;;;;;;;;;;4879414;29;20227;-72
2023/06/03 05:57:09;;;;;;;1999.90;999.90;;;;;;;;;;4896091;29;20425;-72
2023/06/03 05:59:56;;;;;;;1999.90;999.90;;;;;;;;;;4877164;29;20318;-72
2023/06/03 06:02:41;;;;;;;1999.90;999.90;;;;;;;;;;4881781;29;20298;-72
2023/06/03 06:05:25;;;;;;;1999.90;999.90;;;;;;;;;;4877196;29;20588;-72
2023/06/03 06:08:10;;;;;;;1999.90;999.90;;;;;;;;;;4878551;29;20214;-71
2023/06/03 06:10:55;;;;;;;1999.90;999.90;;;;;;;;;;4877091;29;20633;-71
2023/06/03 06:13:40;;;;;;;1999.90;999.90;;;;;;;;;;4882540;29;20218;-71
2023/06/03 06:16:26;;;;;;;1999.90;999.90;;;;;;;;;;4870910;29;20479;-72
2023/06/03 06:19:11;;;;;;;1999.90;999.90;;;;;;;;;;4878371;29;20695;-71
2023/06/03 06:21:56;;;;;;;1999.90;999.90;;;;;;;;;;4877998;29;20226;-72
2023/06/03 06:24:42;;;;;;;1999.90;999.90;;;;;;;;;;4876833;29;20324;-72
2023/06/03 06:27:29;;;;;;;1999.90;999.90;;;;;;;;;;4878305;29;20368;-73
2023/06/03 06:30:15;;;;;;;1999.90;999.90;;;;;;;;;;4879270;29;20326;-73
2023/06/03 06:33:01;;;;;;;1999.90;999.90;;;;;;;;;;4878458;29;20215;-73
2023/06/03 06:35:46;;;;;;;1999.90;999.90;;;;;;;;;;4877616;29;20228;-72
2023/06/03 06:38:35;;;;;;;1999.90;999.90;;;;;;;;;;4881066;29;20219;-72
2023/06/03 06:41:21;;;;;;;1999.90;999.90;;;;;;;;;;4887714;29;20263;-72
2023/06/03 06:44:05;;;;;;;1999.90;999.90;;;;;;;;;;4891319;29;20581;-72
2023/06/03 06:46:54;;;;;;;1999.90;999.90;;;;;;;;;;4884960;29;20419;-72
2023/06/03 06:49:40;;;;;;;1999.90;999.90;;;;;;;;;;4883941;29;20785;-73
2023/06/03 06:52:26;;;;;;;1999.90;999.90;;;;;;;;;;4876010;29;20215;-72
2023/06/03 06:55:11;;;;;;;1999.90;999.90;;;;;;;;;;4888786;29;20763;-72
2023/06/03 06:57:56;;;;;;;1999.90;999.90;;;;;;;;;;4891138;29;20218;-72
2023/06/03 07:00:41;;;;;;;1999.90;999.90;;;;;;;;;;4879348;29;20450;-72
2023/06/03 07:03:27;;;;;;;1999.90;999.90;;;;;;;;;;4880667;29;20216;-73
2023/06/03 07:06:13;;;;;;;1999.90;999.90;;;;;;;;;;4876762;29;20687;-72
2023/06/03 07:08:58;;;;;;;1999.90;999.90;;;;;;;;;;4872918;29;20220;-72
2023/06/03 07:11:44;;;;;;;1999.90;999.90;;;;;;;;;;4882067;29;20595;-72
2023/06/03 07:14:30;;;;;;;1999.90;999.90;;;;;;;;;;4875058;29;20215;-72
2023/06/03 07:17:15;;;;;;;1999.90;999.90;;;;;;;;;;4877361;29;20314;-72
2023/06/03 07:20:00;;;;;;;1999.90;999.90;;;;;;;;;;4877331;29;20716;-72
2023/06/03 07:22:46;;;;;;;1999.90;999.90;;;;;;;;;;4874665;29;20218;-72
2023/06/03 07:25:35;;;;;;;1999.90;999.90;;;;;;;;;;4878917;29;20210;-73
2023/06/03 07:28:21;;;;;;;1999.90;999.90;;;;;;;;;;4888531;29;20370;-73
2023/06/03 07:31:06;;;;;;;1999.90;999.90;;;;;;;;;;4884221;29;20246;-74
2023/06/03 07:33:52;;;;;;;1999.90;999.90;;;;;;;;;;4884132;29;20723;-74
2023/06/03 07:36:37;;;;;;;1999.90;999.90;;;;;;;;;;4881598;29;20225;-72
2023/06/03 07:39:23;;;;;;;1999.90;999.90;;;;;;;;;;4888636;29;20214;-74
2023/06/03 07:42:12;;;;;;;1999.90;999.90;;;;;;;;;;4893387;29;20582;-72
2023/06/03 07:44:58;;;;;;;1999.90;999.90;;;;;;;;;;4889261;29;20207;-73
2023/06/03 07:47:43;;;;;;;1999.90;999.90;;;;;;;;;;4888972;29;20296;-73
2023/06/03 07:50:28;;;;;;;1999.90;999.90;;;;;;;;;;4858783;29;21015;-73
2023/06/03 07:53:15;;;;;;;1999.90;999.90;;;;;;;;;;4888659;29;20264;-73
2023/06/03 07:56:05;;;;;;;1999.90;999.90;;;;;;;;;;4894336;29;20215;-72
2023/06/03 07:58:50;;;;;;;1999.90;999.90;;;;;;;;;;4881204;29;20612;-73
2023/06/03 08:01:36;;;;;;;1999.90;999.90;;;;;;;;;;4874670;29;20246;-73
2023/06/03 08:04:28;;;;;;;1999.90;999.90;;;;;;;;;;4889854;29;20209;-71
2023/06/03 08:07:15;;;;;;;1999.90;999.90;;;;;;;;;;4879531;29;20271;-73
2023/06/03 08:10:00;;;;;;;1999.90;999.90;;;;;;;;;;4880258;29;20784;-73
2023/06/03 08:12:46;;;;;;;1999.90;999.90;;;;;;;;;;4877564;29;20769;-73
2023/06/03 08:15:35;;;;;;;1999.90;999.90;;;;;;;;;;4879441;29;20215;-74
2023/06/03 08:18:30;;;;;;;1999.90;999.90;;;;;;;;;;4882416;29;20218;-74
2023/06/03 08:21:15;;;;;;;1999.90;999.90;;;;;;;;;;4879292;29;20232;-73
2023/06/03 08:24:00;;;;;;;1999.90;999.90;;;;;;;;;;4879399;29;20594;-74
2023/06/03 08:26:46;;;;;;;1999.90;999.90;;;;;;;;;;4875164;29;20587;-73
2023/06/03 08:29:32;;;;;;;1999.90;999.90;;;;;;;;;;4880395;29;20703;-74
2023/06/03 08:32:17;;;;;;;1999.90;999.90;;;;;;;;;;4880409;29;20712;-73
2023/06/03 08:35:02;;;;;;;1999.90;999.90;;;;;;;;;;4880313;29;20213;-73
2023/06/03 08:37:47;;;;;;;1999.90;999.90;;;;;;;;;;4879900;29;21005;-73
2023/06/03 08:40:35;;;;;;;1999.90;999.90;;;;;;;;;;4880082;29;20224;-73
2023/06/03 08:43:21;;;;;;;1999.90;999.90;;;;;;;;;;4880285;29;20227;-74
2023/06/03 08:46:15;;;;;;;1999.90;999.90;;;;;;;;;;4880707;29;20735;-73
2023/06/03 08:49:03;;;;;;;1999.90;999.90;;;;;;;;;;4880370;29;20710;-73
2023/06/03 08:51:52;;;;;;;1999.90;999.90;;;;;;;;;;4885510;29;20213;-73
2023/06/03 08:54:38;;;;;;;1999.90;999.90;;;;;;;;;;4873623;29;20221;-72
2023/06/03 08:57:23;;;;;;;1999.90;999.90;;;;;;;;;;4881982;29;20240;-73
2023/06/03 09:00:09;;;;;;;1999.90;999.90;;;;;;;;;;4879376;29;20317;-72
2023/06/03 09:02:56;;;;;;;1999.90;999.90;;;;;;;;;;4874743;29;20218;-71
2023/06/03 09:05:42;;;;;;;1999.90;999.90;;;;;;;;;;4878054;29;20227;-72
2023/06/03 09:08:27;;;;;;;1999.90;999.90;;;;;;;;;;4879057;29;20292;-72
2023/06/03 09:11:13;;;;;;;1999.90;999.90;;;;;;;;;;4878027;29;20821;-73
2023/06/03 09:14:00;;;;;;;1999.90;999.90;;;;;;;;;;4879637;29;20219;-72
2023/06/03 09:16:45;;;;;;;1999.90;999.90;;;;;;;;;;4876070;29;20303;-72
2023/06/03 09:19:32;;;;;;;1999.90;999.90;;;;;;;;;;4878725;29;20231;-73
2023/06/03 09:22:17;;;;;;;1999.90;999.90;;;;;;;;;;4879085;29;20267;-73
2023/06/03 09:25:03;;;;;;;1999.90;999.90;;;;;;;;;;4879364;29;20305;-73
2023/06/03 09:27:48;;;;;;;1999.90;999.90;;;;;;;;;;4879103;29;20635;-73
2023/06/03 09:30:35;;;;;;;1999.90;999.90;;;;;;;;;;4878209;29;20423;-73
2023/06/03 09:33:20;;;;;;;1999.90;999.90;;;;;;;;;;4879223;29;20573;-73
2023/06/03 09:36:07;;;;;;;1999.90;999.90;;;;;;;;;;4879039;29;20307;-72
2023/06/03 09:38:54;;;;;;;1999.90;999.90;;;;;;;;;;4877498;29;20223;-72
2023/06/03 09:41:41;;;;;;;1999.90;999.90;;;;;;;;;;4878700;29;20239;-73
2023/06/03 09:44:37;;;;;;;1999.90;999.90;;;;;;;;;;4878669;29;20765;-71
2023/06/03 09:47:22;;;;;;;1999.90;999.90;;;;;;;;;;4878693;29;20731;-72
2023/06/03 09:50:09;;;;;;;1999.90;999.90;;;;;;;;;;4875162;29;20368;-72
2023/06/03 09:52:56;;;;;;;1999.90;999.90;;;;;;;;;;4877175;29;20223;-73
2023/06/03 09:55:41;;;;;;;1999.90;999.90;;;;;;;;;;4882396;29;20272;-72
2023/06/03 09:58:26;;;;;;;1999.90;999.90;;;;;;;;;;4876544;29;20219;-73
2023/06/03 10:01:11;;;;;;;1999.90;999.90;;;;;;;;;;4876903;29;20242;-72
2023/06/03 10:04:00;;;;;;;1999.90;999.90;;;;;;;;;;4877958;29;20222;-72
2023/06/03 10:06:45;;;;;;;1999.90;999.90;;;;;;;;;;4881792;29;20694;-72
2023/06/03 10:09:31;;;;;;;1999.90;999.90;;;;;;;;;;4888824;29;20756;-73
2023/06/03 10:12:28;;;;;;;1999.90;999.90;;;;;;;;;;4887453;29;20692;-73
2023/06/03 10:15:13;;;;;;;1999.90;999.90;;;;;;;;;;4884479;29;21290;-73
2023/06/03 10:17:59;;;;;;;1999.90;999.90;;;;;;;;;;4877441;29;20219;-73
2023/06/03 10:20:44;;;;;;;1999.90;999.90;;;;;;;;;;4876454;29;20275;-74
2023/06/03 10:23:29;;;;;;;1999.90;999.90;;;;;;;;;;4880242;29;20223;-73
2023/06/03 10:26:16;;;;;;;1999.90;999.90;;;;;;;;;;4875755;29;20219;-73
2023/06/03 10:29:02;;;;;;;1999.90;999.90;;;;;;;;;;4879541;29;20764;-71
2023/06/03 10:31:49;;;;;;;1999.90;999.90;;;;;;;;;;4882552;29;20256;-72
2023/06/03 10:34:36;;;;;;;1999.90;999.90;;;;;;;;;;4881046;29;20222;-73
2023/06/03 10:37:22;;;;;;;1999.90;999.90;;;;;;;;;;4884278;29;20295;-72
2023/06/03 10:40:08;;;;;;;1999.90;999.90;;;;;;;;;;4884444;29;20250;-72
2023/06/03 10:42:55;;;;;;;1999.90;999.90;;;;;;;;;;4881152;29;20590;-73
2023/06/03 10:45:40;;;;;;;1999.90;999.90;;;;;;;;;;4884238;29;20215;-73
2023/06/03 10:48:27;;;;;;;1999.90;999.90;;;;;;;;;;4891077;29;20251;-71
2023/06/03 10:51:20;;;;;;;1999.90;999.90;;;;;;;;;;4882168;29;20288;-72
2023/06/03 10:54:11;;;;;;;1999.90;999.90;;;;;;;;;;4886056;29;20221;-70
2023/06/03 10:56:59;;;;;;;1999.90;999.90;;;;;;;;;;4878275;29;20227;-72
2023/06/03 10:59:46;;;;;;;1999.90;999.90;;;;;;;;;;4880678;29;20450;-72
2023/06/03 11:03:02;;;;;;;1999.90;999.90;;;;;;;;;;4878966;29;20218;-72
2023/06/03 11:05:47;;;;;;;1999.90;999.90;;;;;;;;;;4879649;29;20227;-72
2023/06/03 11:08:50;;;;;;;1999.90;999.90;;;;;;;;;;4886054;29;20222;-71
2023/06/03 11:12:03;;;;;;;1999.90;999.90;;;;;;;;;;4883494;29;20706;-72
2023/06/03 11:14:55;;;;;;;1999.90;999.90;;;;;;;;;;4880981;29;20684;-73
2023/06/03 11:17:42;;;;;;;1999.90;999.90;;;;;;;;;;4877685;29;20291;-73
2023/06/03 11:20:36;;;;;;;1999.90;999.90;;;;;;;;;;4880695;29;20287;-72
2023/06/03 11:23:40;;;;;;;1999.90;999.90;;;;;;;;;;4884299;29;20215;-73
2023/06/03 11:26:33;;;;;;;1999.90;999.90;;;;;;;;;;4875269;29;20226;-73
2023/06/03 11:29:45;;;;;;;1999.90;999.90;;;;;;;;;;4881288;29;20211;-71
2023/06/03 11:32:32;;;;;;;1999.90;999.90;;;;;;;;;;4883186;29;20443;-71
2023/06/03 11:35:27;;;;;;;1999.90;999.90;;;;;;;;;;4886992;29;20706;-72
2023/06/03 11:38:12;;;;;;;1999.90;999.90;;;;;;;;;;4879870;29;20751;-71
2023/06/03 11:40:57;;;;;;;1999.90;999.90;;;;;;;;;;4881259;29;20233;-72
2023/06/03 11:44:15;;;;;;;1999.90;999.90;;;;;;;;;;4881475;29;20352;-72
2023/06/03 11:47:02;;;;;;;1999.90;999.90;;;;;;;;;;4879781;29;20947;-72
2023/06/03 11:49:47;;;;;;;1999.90;999.90;;;;;;;;;;4882560;29;20631;-72
2023/06/03 11:52:36;;;;;;;1999.90;999.90;;;;;;;;;;4884228;29;20790;-72
2023/06/03 11:55:25;;;;;;;1999.90;999.90;;;;;;;;;;4881156;29;20216;-73
2023/06/03 11:58:10;;;;;;;1999.90;999.90;;;;;;;;;;4881278;29;20215;-72
2023/06/03 12:01:05;;;;;;;1999.90;999.90;;;;;;;;;;4889168;29;20238;-71
2023/06/03 12:04:01;;;;;;;1999.90;999.90;;;;;;;;;;4889718;29;20231;-73
2023/06/03 12:06:46;;;;;;;1999.90;999.90;;;;;;;;;;4890122;29;20231;-71
2023/06/03 12:09:31;;;;;;;1999.90;999.90;;;;;;;;;;4882699;29;20218;-69
2023/06/03 12:12:16;;;;;;;1999.90;999.90;;;;;;;;;;4888584;29;20230;-72
2023/06/03 12:15:04;;;;;;;1999.90;999.90;;;;;;;;;;4888204;29;20227;-72
2023/06/03 12:17:49;;;;;;;1999.90;999.90;;;;;;;;;;4885801;29;20211;-73
2023/06/03 12:20:36;;;;;;;1999.90;999.90;;;;;;;;;;4879683;29;20634;-72
2023/06/03 12:23:21;;;;;;;1999.90;999.90;;;;;;;;;;4876294;29;20462;-72
2023/06/03 12:26:06;;;;;;;1999.90;999.90;;;;;;;;;;4884788;29;20356;-72
2023/06/03 12:28:51;;;;;;;1999.90;999.90;;;;;;;;;;4884879;29;20222;-72
2023/06/03 12:31:36;;;;;;;1999.90;999.90;;;;;;;;;;4879331;29;20235;-71
2023/06/03 12:34:29;;;;;;;1999.90;999.90;;;;;;;;;;4891297;29;20270;-72
2023/06/03 12:37:27;;;;;;;1999.90;999.90;;;;;;;;;;4886511;29;21090;-69
2023/06/03 12:40:22;;;;;;;1999.90;999.90;;;;;;;;;;4877732;29;20233;-71
2023/06/03 12:43:17;;;;;;;1999.90;999.90;;;;;;;;;;4878423;29;20224;-71
2023/06/03 12:46:14;;;;;;;1999.90;999.90;;;;;;;;;;4886314;29;20200;-73
2023/06/03 12:49:12;;;;;;;1999.90;999.90;;;;;;;;;;4879179;29;20246;-72
2023/06/03 12:52:09;;;;;;;1999.90;999.90;;;;;;;;;;4879163;29;20235;-72
2023/06/03 12:54:55;;;;;;;1999.90;999.90;;;;;;;;;;4896544;29;20695;-71
2023/06/03 12:57:41;;;;;;;1999.90;999.90;;;;;;;;;;4893129;29;20682;-72
2023/06/03 13:00:26;;;;;;;1999.90;999.90;;;;;;;;;;4882501;29;20729;-73
2023/06/03 13:03:11;;;;;;;1999.90;999.90;;;;;;;;;;4885874;29;20218;-73
2023/06/03 13:05:56;;;;;;;1999.90;999.90;;;;;;;;;;4887308;29;20595;-72
2023/06/03 13:08:41;;;;;;;1999.90;999.90;;;;;;;;;;4887368;29;20710;-74
2023/06/03 13:11:27;;;;;;;1999.90;999.90;;;;;;;;;;4878915;29;20442;-70
2023/06/03 13:14:12;;;;;;;1999.90;999.90;;;;;;;;;;4886636;29;20214;-73
2023/06/03 13:16:57;;;;;;;1999.90;999.90;;;;;;;;;;4880597;29;20212;-72
2023/06/03 13:19:42;;;;;;;1999.90;999.90;;;;;;;;;;4882844;29;20259;-74
2023/06/03 13:22:27;;;;;;;1999.90;999.90;;;;;;;;;;4882724;29;20211;-73
2023/06/03 13:25:12;;;;;;;1999.90;999.90;;;;;;;;;;4880679;29;20731;-72
2023/06/03 13:27:59;;;;;;;1999.90;999.90;;;;;;;;;;4878627;29;20223;-73
2023/06/03 13:30:45;;;;;;;1999.90;999.90;;;;;;;;;;4880402;29;20258;-72
2023/06/03 13:33:29;;;;;;;1999.90;999.90;;;;;;;;;;4880159;29;20219;-72
2023/06/03 13:36:15;;;;;;;1999.90;999.90;;;;;;;;;;4881736;29;20376;-72
2023/06/03 13:39:00;;;;;;;1999.90;999.90;;;;;;;;;;4888066;29;20219;-74
2023/06/03 13:41:45;;;;;;;1999.90;999.90;;;;;;;;;;4887863;29;20298;-73
2023/06/03 13:44:31;;;;;;;1999.90;999.90;;;;;;;;;;4878191;29;20307;-71
2023/06/03 13:47:16;;;;;;;1999.90;999.90;;;;;;;;;;4878190;29;20263;-73
2023/06/03 13:50:02;;;;;;;1999.90;999.90;;;;;;;;;;4881765;29;20254;-71
2023/06/03 13:52:46;;;;;;;1999.90;999.90;;;;;;;;;;4894078;29;20348;-73
2023/06/03 13:55:32;;;;;;;1999.90;999.90;;;;;;;;;;4876268;29;20211;-73
2023/06/03 13:58:17;;;;;;;1999.90;999.90;;;;;;;;;;4878717;29;20271;-73
2023/06/03 14:01:03;;;;;;;1999.90;999.90;;;;;;;;;;4876647;29;21187;-72
2023/06/03 14:03:48;;;;;;;1999.90;999.90;;;;;;;;;;4876208;29;20223;-72
2023/06/03 14:06:33;;;;;;;1999.90;999.90;;;;;;;;;;4878031;29;20760;-72
2023/06/03 14:09:18;;;;;;;1999.90;999.90;;;;;;;;;;4877713;29;20219;-71
2023/06/03 14:12:03;;;;;;;1999.90;999.90;;;;;;;;;;4877810;29;20280;-70
2023/06/03 14:14:48;;;;;;;1999.90;999.90;;;;;;;;;;4876845;29;20440;-70
2023/06/03 14:17:35;;;;;;;1999.90;999.90;;;;;;;;;;4880377;29;20216;-70
2023/06/03 14:20:20;;;;;;;1999.90;999.90;;;;;;;;;;4875912;29;20341;-70
2023/06/03 14:23:05;;;;;;;1999.90;999.90;;;;;;;;;;4878979;29;20585;-71
2023/06/03 14:25:50;;;;;;;1999.90;999.90;;;;;;;;;;4878504;29;20226;-71
2023/06/03 14:28:35;;;;;;;1999.90;999.90;;;;;;;;;;4882625;29;20843;-70
2023/06/03 14:31:20;;;;;;;1999.90;999.90;;;;;;;;;;4883302;29;20336;-69
2023/06/03 14:34:07;;;;;;;1999.90;999.90;;;;;;;;;;4877143;29;20207;-70
2023/06/03 14:36:52;;;;;;;1999.90;999.90;;;;;;;;;;4879626;29;20240;-69
2023/06/03 14:39:36;;;;;;;1999.90;999.90;;;;;;;;;;4876546;29;20306;-70
2023/06/03 14:42:22;;;;;;;1999.90;999.90;;;;;;;;;;4878061;29;20235;-70
2023/06/03 14:45:07;;;;;;;1999.90;999.90;;;;;;;;;;4876535;29;20216;-70
2023/06/03 14:47:52;;;;;;;1999.90;999.90;;;;;;;;;;4876957;29;20711;-70
2023/06/03 14:50:39;;;;;;;1999.90;999.90;;;;;;;;;;4876302;29;20242;-69
2023/06/03 14:53:24;;;;;;;1999.90;999.90;;;;;;;;;;4875651;29;20313;-70
2023/06/03 14:56:09;;;;;;;1999.90;999.90;;;;;;;;;;4880026;29;20218;-70
2023/06/03 14:58:54;;;;;;;1999.90;999.90;;;;;;;;;;4875914;29;20230;-71
2023/06/03 15:01:39;;;;;;;1999.90;999.90;;;;;;;;;;4876214;29;20836;-69
2023/06/03 15:04:25;;;;;;;1999.90;999.90;;;;;;;;;;4878241;29;20704;-71
2023/06/03 15:07:11;;;;;;;1999.90;999.90;;;;;;;;;;4878796;29;20215;-70
2023/06/03 15:09:57;;;;;;;1999.90;999.90;;;;;;;;;;4877765;29;20243;-69
2023/06/03 15:12:42;;;;;;;1999.90;999.90;;;;;;;;;;4882074;29;20234;-70
2023/06/03 15:15:27;;;;;;;1999.90;999.90;;;;;;;;;;4884065;29;20222;-68
2023/06/03 15:18:12;;;;;;;1999.90;999.90;;;;;;;;;;4881545;29;20303;-69
2023/06/03 15:20:57;;;;;;;1999.90;999.90;;;;;;;;;;4876096;29;20239;-68
2023/06/03 15:23:43;;;;;;;1999.90;999.90;;;;;;;;;;4882245;29;20781;-69
2023/06/03 15:26:28;;;;;;;1999.90;999.90;;;;;;;;;;4876774;29;20215;-71
2023/06/03 15:29:13;;;;;;;1999.90;999.90;;;;;;;;;;4879847;29;20339;-69
2023/06/03 15:31:57;;;;;;;1999.90;999.90;;;;;;;;;;4876936;29;20831;-70
2023/06/03 15:34:42;;;;;;;1999.90;999.90;;;;;;;;;;4881601;29;20236;-69
2023/06/03 15:37:27;;;;;;;1999.90;999.90;;;;;;;;;;4888456;29;20696;-68
2023/06/03 15:40:14;;;;;;;1999.90;999.90;;;;;;;;;;4885727;29;20640;-69
2023/06/03 15:43:00;;;;;;;1999.90;999.90;;;;;;;;;;4883066;29;20215;-68
2023/06/03 15:45:45;;;;;;;1999.90;999.90;;;;;;;;;;4877133;29;20579;-69
2023/06/03 15:48:30;;;;;;;1999.90;999.90;;;;;;;;;;4880181;29;20219;-68
2023/06/03 15:51:15;;;;;;;1999.90;999.90;;;;;;;;;;4881988;29;20784;-68
2023/06/03 15:54:00;;;;;;;1999.90;999.90;;;;;;;;;;4878760;29;20385;-69
2023/06/03 15:56:46;;;;;;;1999.90;999.90;;;;;;;;;;4879910;29;20579;-70
2023/06/03 15:59:31;;;;;;;1999.90;999.90;;;;;;;;;;4876950;29;20216;-68
2023/06/03 16:02:16;;;;;;;1999.90;999.90;;;;;;;;;;4880287;29;20210;-69
2023/06/03 16:05:01;;;;;;;1999.90;999.90;;;;;;;;;;4881387;29;20259;-69
2023/06/03 16:07:46;;;;;;;1999.90;999.90;;;;;;;;;;4876696;29;20216;-69
2023/06/03 16:10:31;;;;;;;1999.90;999.90;;;;;;;;;;4885688;29;20230;-68
2023/06/03 16:13:18;;;;;;;1999.90;999.90;;;;;;;;;;4893196;29;20746;-70
2023/06/03 16:16:03;;;;;;;1999.90;999.90;;;;;;;;;;4892696;29;20226;-66
2023/06/03 16:18:48;;;;;;;1999.90;999.90;;;;;;;;;;4876529;29;20296;-67
2023/06/03 16:21:32;;;;;;;1999.90;999.90;;;;;;;;;;4886231;29;20295;-68
2023/06/03 16:24:17;;;;;;;1999.90;999.90;;;;;;;;;;4875137;29;20429;-68
2023/06/03 16:27:02;;;;;;;1999.90;999.90;;;;;;;;;;4878805;29;20757;-67
2023/06/03 16:29:48;;;;;;;1999.90;999.90;;;;;;;;;;4891695;29;20312;-67
2023/06/03 16:32:34;;;;;;;1999.90;999.90;;;;;;;;;;4886172;29;20763;-69
2023/06/03 16:35:19;;;;;;;1999.90;999.90;;;;;;;;;;4882077;29;20234;-69
2023/06/03 16:38:04;;;;;;;1999.90;999.90;;;;;;;;;;4887018;29;20632;-67
2023/06/03 16:40:49;;;;;;;1999.90;999.90;;;;;;;;;;4889831;29;20431;-68
2023/06/03 16:43:34;;;;;;;1999.90;999.90;;;;;;;;;;4885834;29;20207;-68
2023/06/03 16:46:21;;;;;;;1999.90;999.90;;;;;;;;;;4879695;29;20292;-68
2023/06/03 16:49:05;;;;;;;1999.90;999.90;;;;;;;;;;4885571;29;20291;-68
2023/06/03 16:51:50;;;;;;;1999.90;999.90;;;;;;;;;;4889723;29;20226;-68
2023/06/03 16:54:36;;;;;;;1999.90;999.90;;;;;;;;;;4887037;29;20210;-69
2023/06/03 16:57:21;;;;;;;1999.90;999.90;;;;;;;;;;4884391;29;20214;-70
2023/06/03 17:00:07;;;;;;;1999.90;999.90;;;;;;;;;;4883196;29;20239;-69
2023/06/03 17:02:53;;;;;;;1999.90;999.90;;;;;;;;;;4885747;29;20214;-67
2023/06/03 17:05:38;;;;;;;1999.90;999.90;;;;;;;;;;4890308;29;20231;-68
2023/06/03 17:08:23;;;;;;;1999.90;999.90;;;;;;;;;;4881727;29;20214;-68
2023/06/03 17:11:08;;;;;;;1999.90;999.90;;;;;;;;;;4895880;29;20250;-68
2023/06/03 17:13:53;;;;;;;1999.90;999.90;;;;;;;;;;4893794;29;20238;-69
2023/06/03 17:16:41;;;;;;;1999.90;999.90;;;;;;;;;;4886723;29;20699;-68
2023/06/03 17:19:27;;;;;;;1999.90;999.90;;;;;;;;;;4890121;29;20211;-69